createdAt,value
2023-11-13T00:00:55.444Z,97630.06
2023-11-13T00:03:23.975Z,97653.44
2023-11-13T00:05:51.949Z,97658.06
2023-11-13T00:08:19.943Z,97653.16
2023-11-13T00:10:48.271Z,97647.44
2023-11-13T00:13:16.265Z,97648.56
2023-11-13T00:15:44.229Z,97646.78
2023-11-13T00:18:13.097Z,97649.22
2023-11-13T00:20:40.920Z,97657.72
2023-11-13T00:23:09.246Z,97653.16
2023-11-13T00:25:40.701Z,97648.69
2023-11-13T00:28:12.659Z,97662.59
2023-11-13T00:30:41.111Z,97652.94
2023-11-13T00:33:09.879Z,97654.88
2023-11-13T00:35:37.953Z,97652.84
2023-11-13T00:38:06.185Z,97656.94
2023-11-13T00:40:35.856Z,97656.84
2023-11-13T00:43:03.860Z,97659.44
2023-11-13T00:45:33.442Z,97657.94
2023-11-13T00:48:02.387Z,97663.19
2023-11-13T00:50:30.338Z,97667.34
2023-11-13T00:52:58.691Z,97673.44
2023-11-13T00:55:27.191Z,97673.91
2023-11-13T00:57:55.185Z,97659.34
2023-11-13T01:00:23.493Z,97640.22
2023-11-13T01:02:52.737Z,97645.44
2023-11-13T01:05:23.787Z,97642.75
2023-11-13T01:07:52.069Z,97666.19
2023-11-13T01:10:20.291Z,97664.94
2023-11-13T01:12:51.577Z,97669.28
2023-11-13T01:15:19.985Z,97668.75
2023-11-13T01:17:48.110Z,97668.94
2023-11-13T01:20:19.798Z,97679.56
2023-11-13T01:22:48.324Z,97653.37
2023-11-13T01:25:20.426Z,97682.25
2023-11-13T01:27:48.948Z,97674.06
2023-11-13T01:30:16.887Z,97673.81
2023-11-13T01:32:46.367Z,97679.16
2023-11-13T01:35:14.883Z,97682.06
2023-11-13T01:37:42.865Z,97680.94
2023-11-13T01:40:11.628Z,97686.56
2023-11-13T01:42:40.528Z,97688.31
2023-11-13T01:45:09.444Z,97692.72
2023-11-13T01:47:40.978Z,97696.00
2023-11-13T01:50:10.859Z,97686.97
2023-11-13T01:52:43.106Z,97697.09
2023-11-13T01:55:13.457Z,97702.88
2023-11-13T01:57:44.677Z,97709.31
2023-11-13T02:00:13.715Z,97709.44
2023-11-13T02:02:41.994Z,97707.09
2023-11-13T02:05:14.473Z,97708.75
2023-11-13T02:07:43.884Z,97717.13
2023-11-13T02:10:12.242Z,97717.38
2023-11-13T02:12:40.336Z,97712.47
2023-11-13T02:15:08.921Z,97723.94
2023-11-13T02:17:37.480Z,97716.28
2023-11-13T02:20:07.230Z,97724.66
2023-11-13T02:22:35.301Z,97728.47
2023-11-13T02:25:04.024Z,97727.22
2023-11-13T02:27:32.627Z,97734.91
2023-11-13T02:30:00.554Z,97734.34
2023-11-13T02:32:28.784Z,97738.19
2023-11-13T02:34:56.767Z,97725.44
2023-11-13T02:37:24.661Z,97733.94
2023-11-13T02:39:53.013Z,97732.44
2023-11-13T02:42:21.977Z,97712.00
2023-11-13T02:44:53.012Z,97731.25
2023-11-13T02:47:21.337Z,97749.78
2023-11-13T02:49:49.370Z,97749.72
2023-11-13T02:52:17.341Z,97755.78
2023-11-13T02:54:45.597Z,97754.59
2023-11-13T02:57:14.213Z,97756.84
2023-11-13T02:59:45.280Z,97736.19
2023-11-13T03:02:14.255Z,97757.28
2023-11-13T03:04:42.555Z,97761.69
2023-11-13T03:07:10.532Z,97763.72
2023-11-13T03:09:38.903Z,97769.19
2023-11-13T03:12:07.121Z,97767.97
2023-11-13T03:14:35.362Z,97763.19
2023-11-13T03:17:03.829Z,97771.84
2023-11-13T03:19:31.766Z,97775.13
2023-11-13T03:21:59.862Z,97780.47
2023-11-13T03:24:32.811Z,97789.06
2023-11-13T03:27:00.763Z,97792.00
2023-11-13T03:29:34.116Z,97795.25
2023-11-13T03:32:05.600Z,97797.19
2023-11-13T03:34:34.171Z,97790.63
2023-11-13T03:37:05.544Z,97813.13
2023-11-13T03:39:34.152Z,97809.12
2023-11-13T03:42:01.958Z,97802.38
2023-11-13T03:44:32.677Z,97798.56
2023-11-13T03:47:01.055Z,97797.31
2023-11-13T03:49:29.061Z,97790.03
2023-11-13T03:51:57.079Z,97814.16
2023-11-13T03:54:25.429Z,97815.38
2023-11-13T03:56:53.336Z,97797.53
2023-11-13T03:59:21.317Z,97817.62
2023-11-13T04:01:52.604Z,97801.06
2023-11-13T04:04:21.406Z,97821.75
2023-11-13T04:06:50.854Z,97824.28
2023-11-13T04:09:19.931Z,97821.63
2023-11-13T04:11:48.410Z,97826.81
2023-11-13T04:14:16.590Z,97838.13
2023-11-13T04:16:45.971Z,97828.63
2023-11-13T04:19:14.612Z,97828.66
2023-11-13T04:21:42.858Z,97841.38
2023-11-13T04:24:11.028Z,97841.44
2023-11-13T04:26:39.552Z,97845.88
2023-11-13T04:29:07.608Z,97846.53
2023-11-13T04:31:36.180Z,97856.81
2023-11-13T04:34:07.332Z,97862.84
2023-11-13T04:36:43.380Z,97859.47
2023-11-13T04:39:13.597Z,97860.31
2023-11-13T04:41:45.326Z,97865.41
2023-11-13T04:44:13.716Z,97869.97
2023-11-13T04:46:45.218Z,97873.50
2023-11-13T04:49:15.955Z,97872.63
2023-11-13T04:51:44.681Z,97879.75
2023-11-13T04:54:12.741Z,97885.50
2023-11-13T04:56:41.666Z,97883.31
2023-11-13T04:59:11.157Z,97887.25
2023-11-13T05:01:41.462Z,97887.81
2023-11-13T05:04:13.996Z,97892.00
2023-11-13T05:06:45.918Z,97902.19
2023-11-13T05:09:16.206Z,97906.81
2023-11-13T05:11:46.514Z,97908.47
2023-11-13T05:14:17.704Z,97907.88
2023-11-13T05:16:51.420Z,97904.09
2023-11-13T05:19:21.910Z,97900.81
2023-11-13T05:21:55.831Z,97909.38
2023-11-13T05:24:28.328Z,97910.84
2023-11-13T05:26:58.278Z,97907.47
2023-11-13T05:29:30.373Z,97913.06
2023-11-13T05:32:02.284Z,97915.97
2023-11-13T05:34:37.009Z,97921.53
2023-11-13T05:37:08.007Z,97920.78
2023-11-13T05:39:38.754Z,97927.87
2023-11-13T05:42:09.914Z,97926.28
2023-11-13T05:44:42.438Z,97939.16
2023-11-13T05:47:14.346Z,97931.84
2023-11-13T05:49:44.523Z,97942.13
2023-11-13T05:52:14.919Z,97940.00
2023-11-13T05:54:48.141Z,97942.25
2023-11-13T05:57:19.326Z,97952.34
2023-11-13T05:59:50.384Z,97952.34
2023-11-13T06:02:21.627Z,97956.97
2023-11-13T06:04:56.109Z,97954.38
2023-11-13T06:07:29.247Z,97954.09
2023-11-13T06:10:02.889Z,97966.28
2023-11-13T06:12:39.179Z,97970.09
2023-11-13T06:15:16.407Z,97967.19
2023-11-13T06:17:53.002Z,97970.62
2023-11-13T06:20:27.211Z,97981.41
2023-11-13T06:22:57.387Z,97978.66
2023-11-13T06:25:30.838Z,97964.66
2023-11-13T06:28:05.220Z,97977.44
2023-11-13T06:30:39.942Z,97991.84
2023-11-13T06:33:18.528Z,97997.81
2023-11-13T06:35:54.305Z,97999.09
2023-11-13T06:38:25.413Z,98001.38
2023-11-13T06:40:57.080Z,98011.59
2023-11-13T06:43:27.189Z,98020.94
2023-11-13T06:46:06.072Z,98023.50
2023-11-13T06:48:38.690Z,98027.31
2023-11-13T06:51:19.348Z,98028.94
2023-11-13T06:53:54.840Z,98031.81
2023-11-13T06:56:32.183Z,98042.44
2023-11-13T06:59:03.616Z,98034.59
2023-11-13T07:01:46.199Z,98051.28
2023-11-13T07:04:26.006Z,98049.44
2023-11-13T07:07:04.675Z,98061.91
2023-11-13T07:09:43.961Z,98040.72
2023-11-13T07:12:24.724Z,98068.13
2023-11-13T07:14:57.301Z,98081.19
2023-11-13T07:17:38.379Z,98047.63
2023-11-13T07:20:15.559Z,98091.16
2023-11-13T07:22:55.352Z,98092.78
2023-11-13T07:25:36.218Z,98103.78
2023-11-13T07:28:17.133Z,98109.28
2023-11-13T07:30:49.182Z,98126.13
2023-11-13T07:33:32.444Z,98119.75
2023-11-13T07:36:13.108Z,98127.88
2023-11-13T07:38:54.684Z,98137.72
2023-11-13T07:41:38.406Z,98150.47
2023-11-13T07:44:24.489Z,98143.78
2023-11-13T07:47:02.812Z,98155.66
2023-11-13T07:49:39.133Z,98155.06
2023-11-13T07:52:13.767Z,98175.12
2023-11-13T07:54:54.567Z,98172.63
2023-11-13T07:57:38.306Z,98181.13
2023-11-13T08:00:20.344Z,98180.81
2023-11-13T08:02:59.565Z,98180.34
2023-11-13T08:05:38.274Z,98189.56
2023-11-13T08:08:14.577Z,98195.09
2023-11-13T08:10:56.634Z,98194.75
2023-11-13T08:13:34.215Z,98201.13
2023-11-13T08:16:12.087Z,98187.53
2023-11-13T08:18:53.255Z,98208.78
2023-11-13T08:21:25.335Z,98217.06
2023-11-13T08:24:03.835Z,98211.03
2023-11-13T08:26:38.225Z,98223.66
2023-11-13T08:29:16.887Z,98211.63
2023-11-13T08:31:58.126Z,98224.16
2023-11-13T08:34:49.044Z,98220.47
2023-11-13T08:37:29.514Z,98237.12
2023-11-13T08:40:10.877Z,98235.59
2023-11-13T08:42:46.783Z,98241.75
2023-11-13T08:45:29.160Z,98251.78
2023-11-13T08:48:05.044Z,98248.34
2023-11-13T08:50:53.221Z,98258.53
2023-11-13T08:53:30.608Z,98254.72
2023-11-13T08:56:03.012Z,98262.87
2023-11-13T08:58:42.126Z,98261.16
2023-11-13T09:01:16.981Z,98262.59
2023-11-13T09:03:53.983Z,98274.19
2023-11-13T09:06:44.466Z,98255.50
2023-11-13T09:09:26.980Z,98281.03
2023-11-13T09:12:18.439Z,98289.06
2023-11-13T09:14:58.772Z,98301.06
2023-11-13T09:17:48.259Z,98307.47
2023-11-13T09:20:34.622Z,98292.34
2023-11-13T09:23:18.690Z,98306.00
2023-11-13T09:26:00.231Z,98304.91
2023-11-13T09:28:35.389Z,98295.34
2023-11-13T09:31:15.859Z,98297.28
2023-11-13T09:34:02.458Z,98305.53
2023-11-13T09:36:41.234Z,98314.09
2023-11-13T09:39:13.245Z,98322.00
2023-11-13T09:41:55.633Z,98316.09
2023-11-13T09:44:50.154Z,98318.78
2023-11-13T09:47:43.000Z,98322.72
2023-11-13T09:50:22.844Z,98319.38
2023-11-13T09:53:01.888Z,98336.22
2023-11-13T09:55:50.048Z,98336.22
2023-11-13T09:58:31.794Z,98333.00
2023-11-13T10:01:21.344Z,98343.97
2023-11-13T10:04:14.698Z,98350.53
2023-11-13T10:06:58.516Z,98350.38
2023-11-13T10:09:41.325Z,98346.00
2023-11-13T10:12:17.299Z,98350.38
2023-11-13T10:15:23.776Z,98350.59
2023-11-13T10:18:01.066Z,98361.06
2023-11-13T10:20:55.370Z,98363.91
2023-11-13T10:23:37.390Z,98368.19
2023-11-13T10:26:19.671Z,98379.19
2023-11-13T10:29:01.812Z,98373.66
2023-11-13T10:31:57.467Z,98373.03
2023-11-13T10:34:54.075Z,98377.56
2023-11-13T10:37:40.311Z,98377.06
2023-11-13T10:40:23.169Z,98388.06
2023-11-13T10:43:10.490Z,98390.16
2023-11-13T10:45:57.704Z,98400.66
2023-11-13T10:48:46.714Z,98395.16
2023-11-13T10:51:25.262Z,98403.81
2023-11-13T10:54:10.324Z,98407.31
2023-11-13T10:56:54.690Z,98402.28
2023-11-13T10:59:36.020Z,98411.28
2023-11-13T11:02:38.971Z,98412.06
2023-11-13T11:05:30.633Z,98424.59
2023-11-13T11:08:11.592Z,98424.94
2023-11-13T11:11:03.454Z,98428.28
2023-11-13T11:14:02.919Z,98437.47
2023-11-13T11:16:54.269Z,98435.78
2023-11-13T11:19:50.444Z,98441.81
2023-11-13T11:22:32.746Z,98455.34
2023-11-13T11:25:22.446Z,98453.81
2023-11-13T11:28:09.650Z,98468.06
2023-11-13T11:30:46.818Z,98473.62
2023-11-13T11:33:23.782Z,98481.91
2023-11-13T11:35:59.995Z,98483.97
2023-11-13T11:38:44.540Z,98486.47
2023-11-13T11:41:47.437Z,98483.31
2023-11-13T11:44:32.259Z,98482.88
2023-11-13T11:47:11.546Z,98482.72
2023-11-13T11:49:59.467Z,98478.94
2023-11-13T11:53:00.863Z,98476.81
2023-11-13T11:55:49.302Z,98492.22
2023-11-13T11:58:29.347Z,98493.69
2023-11-13T12:01:17.162Z,98494.09
2023-11-13T12:03:54.024Z,98502.88
2023-11-13T12:06:39.163Z,98505.78
2023-11-13T12:09:28.572Z,98503.50
2023-11-13T12:12:11.156Z,98502.47
2023-11-13T12:15:02.145Z,98505.16
2023-11-13T12:17:45.548Z,98499.87
2023-11-13T12:20:28.887Z,98496.72
2023-11-13T12:23:08.004Z,98505.56
2023-11-13T12:25:53.458Z,98513.06
2023-11-13T12:28:39.002Z,98515.28
2023-11-13T12:31:33.487Z,98519.03
2023-11-13T12:34:15.504Z,98527.53
2023-11-13T12:36:54.802Z,98532.59
2023-11-13T12:39:28.302Z,98529.56
2023-11-13T12:42:09.420Z,98530.41
2023-11-13T12:45:07.498Z,98537.66
2023-11-13T12:48:01.679Z,98536.00
2023-11-13T12:50:46.381Z,98531.25
2023-11-13T12:53:22.380Z,98533.56
2023-11-13T12:56:05.809Z,98532.84
2023-11-13T12:58:55.429Z,98536.16
2023-11-13T13:01:40.920Z,98553.37
2023-11-13T13:04:27.751Z,98543.72
2023-11-13T13:07:18.001Z,98545.44
2023-11-13T13:09:59.409Z,98549.41
2023-11-13T13:12:44.111Z,98556.97
2023-11-13T13:15:25.302Z,98563.41
2023-11-13T13:18:12.166Z,98563.38
2023-11-13T13:20:55.893Z,98569.81
2023-11-13T13:23:36.410Z,98565.03
2023-11-13T13:26:27.419Z,98571.78
2023-11-13T13:29:10.428Z,98576.34
2023-11-13T13:31:53.867Z,98571.06
2023-11-13T13:34:30.566Z,98568.37
2023-11-13T13:37:09.811Z,98574.91
2023-11-13T13:39:51.563Z,98570.25
2023-11-13T13:42:44.996Z,98578.59
2023-11-13T13:45:24.053Z,98577.13
2023-11-13T13:48:08.586Z,98577.16
2023-11-13T13:50:44.360Z,98583.59
2023-11-13T13:53:25.423Z,98554.31
2023-11-13T13:56:06.727Z,98586.31
2023-11-13T13:58:49.336Z,98586.44
2023-11-13T14:01:29.339Z,98598.34
2023-11-13T14:07:00.545Z,98608.09
2023-11-13T14:09:36.049Z,98595.94
2023-11-13T14:12:22.300Z,98593.44
2023-11-13T14:15:01.025Z,98598.81
2023-11-13T14:17:41.481Z,98594.78
2023-11-13T14:20:20.824Z,98603.69
2023-11-13T14:23:04.097Z,98606.47
2023-11-13T14:25:39.221Z,98601.69
2023-11-13T14:28:19.993Z,98600.78
2023-11-13T14:30:58.492Z,98604.03
2023-11-13T14:33:41.822Z,98609.31
2023-11-13T14:36:33.972Z,98604.03
2023-11-13T14:39:15.477Z,98609.16
2023-11-13T14:41:57.370Z,98606.44
2023-11-13T14:44:32.410Z,98610.91
2023-11-13T14:47:20.252Z,98607.50
2023-11-13T14:49:58.815Z,98620.81
2023-11-13T14:52:37.447Z,98608.75
2023-11-13T14:55:15.193Z,98612.91
2023-11-13T14:57:58.741Z,98609.19
2023-11-13T15:00:46.095Z,98611.88
2023-11-13T15:03:29.213Z,98620.63
2023-11-13T15:06:02.660Z,98636.34
2023-11-13T15:08:40.499Z,98644.13
2023-11-13T15:11:19.541Z,98643.94
2023-11-13T15:14:02.416Z,98640.00
2023-11-13T15:16:44.367Z,98641.94
2023-11-13T15:19:43.936Z,98642.56
2023-11-13T15:22:36.747Z,98644.81
2023-11-13T15:25:25.035Z,98643.66
2023-11-13T15:28:11.811Z,98637.25
2023-11-13T15:30:52.344Z,98637.34
2023-11-13T15:33:37.230Z,98644.06
2023-11-13T15:36:13.403Z,98641.25
2023-11-13T15:38:50.819Z,98645.59
2023-11-13T15:41:27.007Z,98639.91
2023-11-13T15:43:58.757Z,98643.72
2023-11-13T15:46:43.434Z,98638.81
2023-11-13T15:49:32.136Z,98643.66
2023-11-13T15:52:14.260Z,98654.53
2023-11-13T15:54:54.844Z,98654.09
2023-11-13T15:57:36.944Z,98659.28
2023-11-13T16:00:18.904Z,98657.44
2023-11-13T16:03:08.107Z,98660.88
2023-11-13T16:05:49.850Z,98665.31
2023-11-13T16:08:39.266Z,98664.78
2023-11-13T16:11:12.006Z,98665.16
2023-11-13T16:14:00.686Z,98668.09
2023-11-13T16:16:46.788Z,98667.19
2023-11-13T16:19:30.823Z,98669.63
2023-11-13T16:22:15.358Z,98675.34
2023-11-13T16:24:54.359Z,98672.06
2023-11-13T16:27:42.515Z,98673.63
2023-11-13T16:30:30.265Z,98681.66
2023-11-13T16:33:13.098Z,98672.16
2023-11-13T16:36:08.705Z,98668.59
2023-11-13T16:38:46.880Z,98665.75
2023-11-13T16:41:38.294Z,98665.25
2023-11-13T16:44:17.238Z,98675.91
2023-11-13T16:46:58.601Z,98665.47
2023-11-13T16:49:36.717Z,98677.56
2023-11-13T16:52:18.438Z,98674.97
2023-11-13T16:54:58.678Z,98665.28
2023-11-13T16:57:38.117Z,98671.03
2023-11-13T17:00:15.222Z,98664.06
2023-11-13T17:02:54.454Z,98665.25
2023-11-13T17:05:36.904Z,98679.12
2023-11-13T17:08:14.848Z,98668.41
2023-11-13T17:10:56.971Z,98661.09
2023-11-13T17:13:35.752Z,98660.13
2023-11-13T17:16:12.217Z,98666.72
2023-11-13T17:18:53.416Z,98664.16
2023-11-13T17:21:24.604Z,98659.84
2023-11-13T17:24:15.316Z,98655.19
2023-11-13T17:27:07.430Z,98656.72
2023-11-13T17:29:44.611Z,98651.91
2023-11-13T17:32:27.083Z,98662.38
2023-11-13T17:35:13.794Z,98650.94
2023-11-13T17:37:54.452Z,98656.22
2023-11-13T17:40:32.566Z,98658.16
2023-11-13T17:43:16.814Z,98658.44
2023-11-13T17:46:00.810Z,98659.87
2023-11-13T17:48:45.750Z,98658.50
2023-11-13T17:51:33.656Z,98668.25
2023-11-13T17:54:08.420Z,98659.37
2023-11-13T17:56:51.404Z,98667.59
2023-11-13T17:59:31.016Z,98668.06
2023-11-13T18:02:04.726Z,98670.75
2023-11-13T18:04:48.972Z,98678.12
2023-11-13T18:07:38.900Z,98679.47
2023-11-13T18:10:19.197Z,98677.78
2023-11-13T18:13:01.005Z,98681.84
2023-11-13T18:15:45.237Z,98669.78
2023-11-13T18:18:23.886Z,98679.69
2023-11-13T18:21:07.534Z,98684.28
2023-11-13T18:23:47.397Z,98672.16
2023-11-13T18:26:30.899Z,98682.25
2023-11-13T18:29:09.446Z,98673.03
2023-11-13T18:31:47.819Z,98678.66
2023-11-13T18:34:28.147Z,98676.53
2023-11-13T18:37:10.006Z,98672.16
2023-11-13T18:39:57.976Z,98670.84
2023-11-13T18:42:41.442Z,98670.50
2023-11-13T18:45:21.381Z,98672.22
2023-11-13T18:48:03.706Z,98674.47
2023-11-13T18:50:36.491Z,98672.38
2023-11-13T18:53:10.371Z,98664.47
2023-11-13T18:55:50.894Z,98668.72
2023-11-13T18:58:34.329Z,98670.06
2023-11-13T19:01:14.928Z,98670.06
2023-11-13T19:04:02.427Z,98678.50
2023-11-13T19:06:43.611Z,98674.13
2023-11-13T19:09:27.198Z,98682.63
2023-11-13T19:12:05.211Z,98678.66
2023-11-13T19:14:43.991Z,98678.66
2023-11-13T19:17:19.395Z,98682.19
2023-11-13T19:20:15.249Z,98683.03
2023-11-13T19:23:10.673Z,98677.47
2023-11-13T19:25:43.160Z,98685.28
2023-11-13T19:28:18.972Z,98680.69
2023-11-13T19:31:03.503Z,98689.31
2023-11-13T19:33:42.492Z,98682.13
2023-11-13T19:36:20.495Z,98689.47
2023-11-13T19:39:10.209Z,98686.72
2023-11-13T19:41:48.097Z,98683.16
2023-11-13T19:44:22.224Z,98677.75
2023-11-13T19:46:52.900Z,98683.19
2023-11-13T19:49:28.406Z,98677.88
2023-11-13T19:52:01.357Z,98679.06
2023-11-13T19:54:36.089Z,98681.31
2023-11-13T19:57:09.722Z,98681.31
2023-11-13T19:59:49.204Z,98684.38
2023-11-13T20:02:19.690Z,98674.44
2023-11-13T20:04:53.927Z,98685.69
2023-11-13T20:07:25.378Z,98676.94
2023-11-13T20:09:59.093Z,98675.16
2023-11-13T20:12:30.985Z,98683.91
2023-11-13T20:15:04.575Z,98658.44
2023-11-13T20:17:35.611Z,98663.41
2023-11-13T20:20:12.836Z,98679.03
2023-11-13T20:22:43.478Z,98678.91
2023-11-13T20:25:15.624Z,98674.63
2023-11-13T20:27:49.469Z,98683.16
2023-11-13T20:30:23.096Z,98678.81
2023-11-13T20:32:55.236Z,98668.59
2023-11-13T20:35:28.626Z,98677.59
2023-11-13T20:38:00.721Z,98679.03
2023-11-13T20:40:32.484Z,98673.00
2023-11-13T20:43:03.476Z,98675.47
2023-11-13T20:45:34.921Z,98677.22
2023-11-13T20:48:05.220Z,98684.34
2023-11-13T20:50:35.612Z,98681.72
2023-11-13T20:53:04.586Z,98673.00
2023-11-13T20:55:33.344Z,98671.94
2023-11-13T20:58:07.371Z,98672.88
2023-11-13T21:00:36.016Z,98666.34
2023-11-13T21:06:02.281Z,98678.28
2023-11-13T21:08:36.877Z,98672.84
2023-11-13T21:11:06.786Z,98677.69
2023-11-13T21:13:35.797Z,98679.56
2023-11-13T21:16:03.962Z,98664.16
2023-11-13T21:18:33.168Z,98682.63
2023-11-13T21:21:01.713Z,98674.50
2023-11-13T21:23:34.082Z,98675.53
2023-11-13T21:26:05.689Z,98674.37
2023-11-13T21:28:35.269Z,98669.88
2023-11-13T21:31:04.087Z,98677.94
2023-11-13T21:33:31.886Z,98673.97
2023-11-13T21:36:02.887Z,98668.38
2023-11-13T21:38:31.466Z,98679.62
2023-11-13T21:40:59.610Z,98673.13
2023-11-13T21:43:28.496Z,98676.91
2023-11-13T21:45:56.782Z,98675.63
2023-11-13T21:48:25.175Z,98678.38
2023-11-13T21:50:54.040Z,98656.47
2023-11-13T21:53:25.400Z,98681.91
2023-11-13T21:55:55.428Z,98680.03
2023-11-13T21:58:23.883Z,98679.94
2023-11-13T22:00:51.936Z,98676.72
2023-11-13T22:03:23.176Z,98664.84
2023-11-13T22:05:51.117Z,98665.31
2023-11-13T22:08:21.819Z,98657.16
2023-11-13T22:10:50.366Z,98670.72
2023-11-13T22:13:18.361Z,98669.81
2023-11-13T22:15:46.193Z,98652.97
2023-11-13T22:18:15.247Z,98678.91
2023-11-13T22:20:43.148Z,98664.66
2023-11-13T22:23:12.031Z,98669.75
2023-11-13T22:25:43.153Z,98663.94
2023-11-13T22:28:10.964Z,98663.25
2023-11-13T22:30:42.005Z,98668.25
2023-11-13T22:33:10.188Z,98666.13
2023-11-13T22:35:38.156Z,98663.62
2023-11-13T22:38:06.094Z,98654.63
2023-11-13T22:40:34.483Z,98668.00
2023-11-13T22:43:05.381Z,98657.97
2023-11-13T22:45:33.534Z,98655.16
2023-11-13T22:48:01.866Z,98660.37
2023-11-13T22:50:29.795Z,98662.34
2023-11-13T22:52:58.046Z,98645.41
2023-11-13T22:55:26.302Z,98655.78
2023-11-13T22:57:57.072Z,98654.81
2023-11-13T23:00:38.047Z,98663.44
2023-11-13T23:03:11.764Z,98660.84
2023-11-13T23:05:39.706Z,98653.88
2023-11-13T23:08:08.009Z,98651.75
2023-11-13T23:10:36.066Z,98664.75
2023-11-13T23:13:04.283Z,98661.09
2023-11-13T23:15:33.248Z,98663.84
2023-11-13T23:18:04.496Z,98663.50
2023-11-13T23:20:32.787Z,98659.94
2023-11-13T23:23:00.686Z,98651.09
2023-11-13T23:25:28.689Z,98659.09
2023-11-13T23:27:57.387Z,98656.59
2023-11-13T23:30:26.144Z,98653.09
2023-11-13T23:32:54.109Z,98659.72
2023-11-13T23:35:22.618Z,98656.16
2023-11-13T23:37:50.635Z,98656.16
2023-11-13T23:40:19.765Z,98659.25
2023-11-13T23:42:47.970Z,98654.28
2023-11-13T23:45:17.325Z,98650.75
2023-11-13T23:47:45.750Z,98659.72
2023-11-13T23:50:14.041Z,98656.75
2023-11-13T23:52:43.915Z,98655.34
2023-11-13T23:55:11.994Z,98654.06
2023-11-13T23:57:40.300Z,98654.28
